Aplin, Arkansas
Current Conditions -  °F | °C
As of 2:33 AM on Sunday 26 Oct 2014 (Local Time) from KRUE Reporting Station
Haze Haze  
Wind Chill: 58°   Ceiling: 500
Heat Index: 58°   Visibility: 3mi
Dew Point: 57°   Wind: 0mph
Humidity: 97%   Direction: NA
Pressure: 30.01"   Gusts: NA
Location:  34.9067°N, 93.0072°W
Report Text: KRUE 260733Z AUTO 00000KT 3SM BR BKN005 14/14 A3001 RMK AO2 T01440139
Loading
Personal Weather Stations






























Interactive Weather Map
Tropical Storm Tracking
New forecast layout! Learn more

10-Day Weather Forecast

Advertisements
Track Severe Weather on mobile